Time;durP1;ratioP1;P1;durP2;ratioP2;P2;SDS_P1;SDS_P2;PMS_P1;PMS_P2;Temp;Humidity;BMP_temperature;BMP_pressure;BME280_temperature;BME280_humidity;BME280_pressure;Samples;Min_cycle;Max_cycle;Signal;HPM_P1;HPM_P2
2021/12/21 00:02:06;;;;;;;14.20;6.07;;;0.10;99.90;;;;;;10344908;28;20220;-74
2021/12/21 00:07:09;;;;;;;15.13;5.73;;;0.00;99.90;;;;;;10349704;28;20236;-74
2021/12/21 00:12:13;;;;;;;13.93;6.23;;;0.00;99.90;;;;;;10351210;28;20217;-74
2021/12/21 00:17:44;;;;;;;17.97;6.37;;;-0.10;99.90;;;;;;10348957;28;20752;-75
2021/12/21 00:27:53;;;;;;;10.50;6.43;;;-0.20;99.90;;;;;;10351104;28;20221;-73
2021/12/21 00:32:53;;;;;;;12.17;6.10;;;-0.10;99.90;;;;;;10343031;28;20217;-73
2021/12/21 00:37:56;;;;;;;12.00;6.20;;;-0.10;99.90;;;;;;10342832;28;20291;-74
2021/12/21 00:42:56;;;;;;;12.17;6.30;;;-0.20;99.90;;;;;;10345360;28;20230;-74
2021/12/21 00:47:57;;;;;;;14.73;6.97;;;-0.20;99.90;;;;;;10340620;28;20619;-73
2021/12/21 00:52:57;;;;;;;14.97;6.87;;;-0.30;99.90;;;;;;10347339;28;20202;-74
2021/12/21 00:57:58;;;;;;;13.00;6.07;;;-0.30;99.90;;;;;;10350405;28;20251;-74
2021/12/21 01:03:08;;;;;;;12.80;6.97;;;-0.30;99.90;;;;;;10352308;28;20214;-74
2021/12/21 01:08:12;;;;;;;18.97;6.90;;;-0.30;99.90;;;;;;10354949;28;20313;-74
2021/12/21 01:18:31;;;;;;;10.57;6.50;;;-0.50;99.90;;;;;;10349830;28;20305;-74
2021/12/21 01:28:47;;;;;;;17.10;7.43;;;-0.60;99.90;;;;;;10350765;28;20376;-75
2021/12/21 01:34:03;;;;;;;15.13;6.87;;;-0.70;99.90;;;;;;10352355;28;20217;-74
2021/12/21 01:39:24;;;;;;;15.37;7.33;;;-0.70;99.90;;;;;;10356137;28;20788;-74
2021/12/21 01:49:49;;;;;;;15.37;7.07;;;-0.70;99.90;;;;;;10352493;28;20222;-74
2021/12/21 01:54:52;;;;;;;14.20;7.17;;;-0.80;99.90;;;;;;10351665;28;20304;-74
2021/12/21 01:59:55;;;;;;;17.47;7.13;;;-0.80;99.90;;;;;;10350753;28;20225;-74
2021/12/21 02:04:59;;;;;;;17.87;7.47;;;-0.80;99.90;;;;;;10352451;28;20235;-74
2021/12/21 02:10:00;;;;;;;15.90;7.17;;;-0.80;99.90;;;;;;10361524;28;20229;-73
2021/12/21 02:15:01;;;;;;;12.43;6.73;;;-0.90;99.90;;;;;;10359185;28;20213;-73
2021/12/21 02:20:19;;;;;;;12.87;6.80;;;-0.90;99.90;;;;;;10353559;28;20225;-74
2021/12/21 02:30:25;;;;;;;13.73;7.70;;;-0.80;99.90;;;;;;10346176;28;20642;-74
2021/12/21 02:35:25;;;;;;;13.60;7.03;;;-0.90;99.90;;;;;;10353168;28;20288;-75
2021/12/21 02:40:29;;;;;;;16.43;7.20;;;-0.90;99.90;;;;;;10346808;28;20242;-73
2021/12/21 02:45:30;;;;;;;17.30;8.03;;;-0.90;99.90;;;;;;10360510;28;20267;-74
2021/12/21 02:50:31;;;;;;;18.37;8.33;;;-0.90;99.90;;;;;;10361510;28;20292;-74
2021/12/21 02:55:32;;;;;;;13.63;7.47;;;-0.90;99.90;;;;;;10351806;28;20217;-73
2021/12/21 03:00:33;;;;;;;15.70;7.17;;;-0.90;99.90;;;;;;10354927;28;20300;-73
2021/12/21 03:05:36;;;;;;;16.80;8.97;;;-0.90;99.90;;;;;;10351217;28;20229;-74
2021/12/21 03:10:37;;;;;;;16.70;8.93;;;-0.90;99.90;;;;;;10346946;28;20239;-75
2021/12/21 03:15:38;;;;;;;18.63;7.67;;;-0.90;99.90;;;;;;10350152;28;20239;-74
2021/12/21 03:20:39;;;;;;;16.87;8.70;;;-1.00;99.90;;;;;;10351307;28;20756;-74
2021/12/21 03:25:42;;;;;;;13.63;8.30;;;-1.00;99.90;;;;;;10353467;28;20235;-73
2021/12/21 03:30:43;;;;;;;17.80;8.17;;;-1.00;99.90;;;;;;10349106;28;20213;-74
2021/12/21 03:35:43;;;;;;;20.40;7.90;;;-1.00;99.90;;;;;;10346430;28;20235;-74
2021/12/21 03:40:44;;;;;;;12.67;7.90;;;-1.00;99.90;;;;;;10351138;28;20217;-74
2021/12/21 03:46:00;;;;;;;16.30;8.20;;;-1.00;99.90;;;;;;10347602;28;20715;-73
2021/12/21 03:51:01;;;;;;;17.47;8.30;;;-1.10;99.90;;;;;;10352401;28;20244;-73
2021/12/21 03:56:23;;;;;;;15.33;7.33;;;-1.10;99.90;;;;;;10349554;28;20690;-74
2021/12/21 04:01:23;;;;;;;14.90;7.37;;;-1.10;99.90;;;;;;10343343;28;20245;-74
2021/12/21 04:06:24;;;;;;;18.10;8.00;;;-1.10;99.90;;;;;;10350115;28;20746;-74
2021/12/21 04:11:25;;;;;;;15.70;6.73;;;-1.10;99.90;;;;;;10349167;28;20221;-73
2021/12/21 04:16:26;;;;;;;12.07;6.80;;;-1.20;99.90;;;;;;10350842;28;20695;-74
2021/12/21 04:21:26;;;;;;;11.03;6.60;;;-1.10;99.90;;;;;;10354644;28;20248;-74
2021/12/21 04:26:27;;;;;;;17.27;7.90;;;-1.20;99.90;;;;;;10343501;28;20237;-74
2021/12/21 04:31:28;;;;;;;13.93;7.73;;;-1.20;99.90;;;;;;10349569;28;20216;-75
2021/12/21 04:36:30;;;;;;;16.27;7.60;;;-1.30;99.90;;;;;;10348930;28;20580;-74
2021/12/21 04:41:30;;;;;;;13.43;8.17;;;-1.30;99.90;;;;;;10345708;28;20763;-75
2021/12/21 04:46:31;;;;;;;16.90;8.90;;;-1.30;99.90;;;;;;10355182;28;20221;-74
2021/12/21 04:51:31;;;;;;;17.50;8.20;;;-1.40;99.90;;;;;;10363118;28;20557;-74
2021/12/21 04:56:32;;;;;;;14.40;7.67;;;-1.40;99.90;;;;;;10364716;28;20224;-75
2021/12/21 05:01:33;;;;;;;17.10;7.77;;;-1.40;99.90;;;;;;10350841;28;20228;-73
2021/12/21 05:06:36;;;;;;;14.87;7.73;;;-1.40;99.90;;;;;;10362046;28;20229;-74
2021/12/21 05:11:37;;;;;;;13.30;7.23;;;-1.40;99.90;;;;;;10350622;28;20213;-74
2021/12/21 05:16:38;;;;;;;11.53;7.00;;;-1.40;99.90;;;;;;10361082;28;20374;-74
2021/12/21 05:21:38;;;;;;;12.50;6.77;;;-1.40;99.90;;;;;;10346592;28;20644;-74
2021/12/21 05:26:39;;;;;;;14.87;7.23;;;-1.40;99.90;;;;;;10356378;28;20228;-74
2021/12/21 05:31:40;;;;;;;14.43;7.13;;;-1.40;99.90;;;;;;10357701;28;20213;-74
2021/12/21 05:36:40;;;;;;;12.27;6.87;;;-1.40;99.90;;;;;;10353488;28;20225;-75
2021/12/21 05:41:51;;;;;;;14.77;6.77;;;-1.30;99.90;;;;;;10358512;28;20302;-75
2021/12/21 05:46:54;;;;;;;19.10;7.03;;;-1.30;99.90;;;;;;10364241;28;20224;-74
2021/12/21 05:51:54;;;;;;;11.97;7.03;;;-1.30;99.90;;;;;;10349860;28;20225;-75
2021/12/21 05:56:55;;;;;;;12.37;7.70;;;-1.30;99.90;;;;;;10354578;28;20683;-74
2021/12/21 06:01:55;;;;;;;12.10;6.50;;;-1.30;99.90;;;;;;10341810;28;20225;-74
2021/12/21 06:06:56;;;;;;;12.40;7.17;;;-1.30;99.90;;;;;;10359804;28;20217;-74
2021/12/21 06:22:56;;;;;;;14.77;6.70;;;-1.40;99.90;;;;;;10349690;28;20221;-74
2021/12/21 06:27:57;;;;;;;13.93;6.47;;;-1.40;99.90;;;;;;10348839;28;20623;-73
2021/12/21 06:32:58;;;;;;;11.13;5.83;;;-1.40;99.90;;;;;;10354966;28;20234;-74
2021/12/21 06:37:59;;;;;;;15.20;6.23;;;-1.40;99.90;;;;;;10351455;28;20750;-74
2021/12/21 06:43:01;;;;;;;11.63;5.90;;;-1.40;99.90;;;;;;10353692;28;20232;-74
2021/12/21 06:53:25;;;;;;;14.20;6.17;;;-1.40;99.90;;;;;;10351372;28;20218;-73
2021/12/21 06:58:25;;;;;;;12.63;7.23;;;-1.40;99.90;;;;;;10363729;28;20225;-74
2021/12/21 07:03:27;;;;;;;17.00;7.07;;;-1.40;99.90;;;;;;10345064;28;20230;-74
2021/12/21 07:08:30;;;;;;;11.90;5.97;;;-1.40;99.90;;;;;;10342551;28;20232;-74
2021/12/21 07:18:50;;;;;;;11.17;6.10;;;-1.30;99.90;;;;;;10352505;28;20264;-74
2021/12/21 07:23:51;;;;;;;13.30;5.67;;;-1.40;99.90;;;;;;10347864;28;20258;-74
2021/12/21 07:28:52;;;;;;;11.63;6.10;;;-1.40;99.90;;;;;;10351273;28;20230;-75
2021/12/21 07:33:52;;;;;;;13.37;5.80;;;-1.30;99.90;;;;;;10351651;28;20221;-74
2021/12/21 07:38:59;;;;;;;12.53;6.27;;;-1.30;99.90;;;;;;10352526;28;20224;-75
2021/12/21 07:44:00;;;;;;;11.77;6.43;;;-1.30;99.90;;;;;;10352360;28;20237;-74
2021/12/21 07:49:03;;;;;;;13.63;6.23;;;-1.30;99.90;;;;;;10354157;28;20224;-75
2021/12/21 07:54:07;;;;;;;13.20;5.80;;;-1.20;99.90;;;;;;10352783;28;20225;-74
2021/12/21 07:59:08;;;;;;;15.27;5.97;;;-1.10;99.90;;;;;;10356084;28;20385;-74
2021/12/21 08:04:09;;;;;;;11.60;5.67;;;-1.00;99.90;;;;;;10351097;28;20308;-74
2021/12/21 08:09:11;;;;;;;13.17;5.90;;;-0.90;99.90;;;;;;10349386;28;20225;-74
2021/12/21 08:14:11;;;;;;;12.87;6.13;;;-0.90;99.90;;;;;;10350032;28;20293;-74
2021/12/21 08:19:12;;;;;;;8.87;5.23;;;-0.80;99.90;;;;;;10349269;28;20315;-74
2021/12/21 08:24:12;;;;;;;9.83;5.07;;;-0.80;99.90;;;;;;10358161;28;20221;-73
2021/12/21 08:29:13;;;;;;;12.90;5.43;;;-0.70;99.90;;;;;;10357110;28;20225;-74
2021/12/21 08:34:15;;;;;;;15.47;5.87;;;-0.60;99.90;;;;;;10351171;28;20237;-74
2021/12/21 08:39:17;;;;;;;12.30;5.57;;;-0.40;99.90;;;;;;10357961;28;20229;-74
2021/12/21 08:44:21;;;;;;;9.53;5.47;;;-0.30;99.90;;;;;;10353855;28;20256;-74
2021/12/21 08:49:22;;;;;;;7.97;4.97;;;0.60;99.90;;;;;;10349912;28;20635;-74
2021/12/21 08:54:23;;;;;;;7.50;4.47;;;4.20;99.90;;;;;;10354868;28;20241;-74
2021/12/21 08:59:27;;;;;;;12.20;4.87;;;6.60;99.90;;;;;;10356970;28;20221;-74
2021/12/21 09:04:28;;;;;;;8.23;4.80;;;7.80;99.90;;;;;;10356239;28;20753;-74
2021/12/21 09:09:31;;;;;;;11.47;4.90;;;9.10;95.40;;;;;;10349331;28;20235;-74
2021/12/21 09:14:32;;;;;;;9.20;4.40;;;9.50;91.40;;;;;;10360585;28;20224;-75
2021/12/21 09:19:32;;;;;;;8.13;3.90;;;10.20;87.80;;;;;;10348880;28;20681;-75
2021/12/21 09:24:33;;;;;;;8.30;4.20;;;11.00;80.00;;;;;;10360788;28;20304;-74
2021/12/21 09:29:34;;;;;;;8.30;4.47;;;11.20;75.50;;;;;;10349418;28;20794;-74
2021/12/21 09:34:34;;;;;;;10.77;4.30;;;11.90;70.40;;;;;;10355892;28;20215;-74
2021/12/21 09:39:35;;;;;;;8.53;4.67;;;13.60;63.00;;;;;;10354351;28;20226;-74
2021/12/21 09:44:35;;;;;;;10.10;4.73;;;14.30;57.00;;;;;;10357118;28;20240;-76
2021/12/21 09:49:37;;;;;;;8.20;3.87;;;14.00;56.80;;;;;;10355988;28;20315;-76
2021/12/21 09:54:38;;;;;;;5.03;4.10;;;12.80;58.10;;;;;;10356557;28;20241;-76
2021/12/21 09:59:39;;;;;;;8.70;4.23;;;13.50;58.20;;;;;;10356799;28;20220;-74
2021/12/21 10:04:54;;;;;;;6.97;3.70;;;13.70;56.20;;;;;;10352709;28;20753;-75
2021/12/21 10:10:08;;;;;;;7.57;4.10;;;13.80;56.80;;;;;;10356905;28;20240;-75
2021/12/21 10:15:11;;;;;;;7.70;3.63;;;15.20;52.90;;;;;;10347426;28;20221;-75
2021/12/21 10:20:13;;;;;;;5.93;3.43;;;14.40;53.90;;;;;;10352482;28;20189;-75
2021/12/21 10:25:13;;;;;;;6.97;3.80;;;13.80;54.80;;;;;;10347909;28;20187;-75
2021/12/21 10:30:14;;;;;;;8.33;3.93;;;13.60;55.80;;;;;;10361490;28;20219;-75
2021/12/21 10:35:15;;;;;;;9.87;3.97;;;14.20;54.20;;;;;;10347709;28;20191;-76
2021/12/21 10:40:22;;;;;;;6.97;3.50;;;13.60;54.90;;;;;;10354300;28;20670;-76
2021/12/21 10:45:47;;;;;;;6.57;3.73;;;14.20;54.20;;;;;;10347347;28;20211;-76
2021/12/21 10:50:48;;;;;;;6.87;3.60;;;15.90;53.20;;;;;;10353343;28;20689;-75
2021/12/21 10:56:09;;;;;;;8.83;3.70;;;18.90;46.10;;;;;;10347971;28;20232;-73
2021/12/21 11:01:13;;;;;;;7.93;3.77;;;17.20;46.20;;;;;;10367034;28;20215;-75
2021/12/21 11:06:20;;;;;;;5.43;3.40;;;16.60;46.40;;;;;;10346259;28;20769;-75
2021/12/21 11:11:27;;;;;;;5.70;3.00;;;16.20;47.50;;;;;;10344381;28;20706;-75
2021/12/21 11:16:40;;;;;;;5.77;3.30;;;16.50;47.00;;;;;;10352434;28;20306;-74
2021/12/21 11:21:42;;;;;;;7.13;3.37;;;13.90;50.30;;;;;;10351917;28;20227;-75
2021/12/21 11:26:46;;;;;;;6.93;3.37;;;9.30;61.20;;;;;;10345058;28;20236;-75
2021/12/21 11:31:52;;;;;;;7.70;3.40;;;6.60;74.40;;;;;;10347081;28;20308;-75
2021/12/21 11:42:35;;;;;;;6.20;3.60;;;4.70;90.10;;;;;;10351908;28;20228;-75
2021/12/21 11:47:44;;;;;;;8.47;3.60;;;4.40;97.60;;;;;;10353057;28;20243;-75
2021/12/21 11:52:48;;;;;;;6.97;3.30;;;4.40;99.90;;;;;;10356333;28;20218;-75
2021/12/21 11:57:56;;;;;;;6.73;3.17;;;4.40;99.90;;;;;;10348324;28;20233;-74
2021/12/21 12:03:13;;;;;;;8.50;3.20;;;4.40;99.90;;;;;;10353223;28;20228;-76
2021/12/21 12:08:13;;;;;;;10.33;3.43;;;4.30;99.90;;;;;;10352695;28;20220;-75
2021/12/21 12:13:30;;;;;;;7.27;3.23;;;4.10;99.90;;;;;;10346244;28;20268;-75
2021/12/21 12:18:39;;;;;;;6.97;3.03;;;4.10;99.90;;;;;;10351627;28;20887;-74
2021/12/21 12:23:46;;;;;;;9.03;3.07;;;4.10;99.90;;;;;;10345126;28;20348;-75
2021/12/21 12:28:46;;;;;;;6.93;2.97;;;4.10;99.90;;;;;;10353716;28;20257;-74
2021/12/21 12:33:49;;;;;;;5.30;3.60;;;4.10;99.90;;;;;;10352917;28;20316;-75
2021/12/21 12:38:52;;;;;;;8.90;4.00;;;4.10;99.90;;;;;;10350666;28;20280;-74
2021/12/21 12:43:53;;;;;;;6.87;2.70;;;4.10;99.90;;;;;;10346732;28;20238;-74
2021/12/21 12:48:57;;;;;;;7.13;3.63;;;4.10;99.90;;;;;;10357489;28;20235;-75
2021/12/21 12:53:57;;;;;;;5.03;2.70;;;4.00;99.90;;;;;;10357649;28;20213;-75
2021/12/21 12:59:04;;;;;;;9.77;3.27;;;4.00;99.90;;;;;;10359805;28;20748;-74
2021/12/21 13:04:09;;;;;;;5.17;2.73;;;4.00;99.90;;;;;;10357380;28;20253;-74
2021/12/21 13:09:12;;;;;;;6.10;2.57;;;4.00;99.90;;;;;;10356538;28;20252;-74
2021/12/21 13:14:15;;;;;;;6.20;3.10;;;4.00;99.90;;;;;;10357254;28;20257;-74
2021/12/21 13:19:18;;;;;;;5.13;2.80;;;4.00;99.90;;;;;;10362975;28;20979;-75
2021/12/21 13:24:21;;;;;;;5.00;2.50;;;4.00;99.90;;;;;;10358397;28;20217;-74
2021/12/21 13:29:25;;;;;;;5.90;2.50;;;4.00;99.90;;;;;;10356774;28;20221;-74
2021/12/21 13:34:28;;;;;;;4.07;2.13;;;3.80;99.90;;;;;;10363809;28;20240;-75
2021/12/21 13:39:44;;;;;;;3.57;2.50;;;3.80;99.90;;;;;;10348488;28;20218;-75
2021/12/21 13:44:52;;;;;;;4.33;2.40;;;3.90;99.90;;;;;;10347490;28;20777;-75
2021/12/21 13:49:53;;;;;;;4.43;2.60;;;3.90;99.90;;;;;;10358099;28;20229;-75
2021/12/21 13:54:54;;;;;;;4.60;2.60;;;3.90;99.90;;;;;;10352166;28;20232;-75
2021/12/21 13:59:57;;;;;;;4.67;2.97;;;3.80;99.90;;;;;;10356713;28;20213;-74
2021/12/21 14:05:03;;;;;;;5.43;3.40;;;3.70;99.90;;;;;;10354423;28;20217;-75
2021/12/21 14:10:08;;;;;;;6.80;3.00;;;3.70;99.90;;;;;;10346804;28;20268;-75
2021/12/21 14:15:09;;;;;;;5.57;3.30;;;3.70;99.90;;;;;;10350262;28;20174;-75
2021/12/21 14:20:10;;;;;;;3.90;2.60;;;3.70;99.90;;;;;;10368703;28;20557;-75
2021/12/21 14:25:17;;;;;;;5.17;3.17;;;3.60;99.90;;;;;;10346932;28;20186;-74
2021/12/21 14:30:17;;;;;;;6.83;3.13;;;3.50;99.90;;;;;;10353891;28;20296;-75
2021/12/21 14:35:20;;;;;;;5.10;2.70;;;3.40;99.90;;;;;;10343985;28;20280;-74
2021/12/21 14:40:20;;;;;;;3.97;2.90;;;3.40;99.90;;;;;;10353176;28;20628;-75
2021/12/21 14:45:27;;;;;;;9.17;3.50;;;3.30;99.90;;;;;;10345334;28;20306;-74
2021/12/21 14:50:41;;;;;;;3.73;2.93;;;3.20;99.90;;;;;;10357971;28;20388;-74
2021/12/21 14:55:41;;;;;;;5.87;3.03;;;3.20;99.90;;;;;;10351208;28;20231;-74
2021/12/21 15:00:53;;;;;;;7.67;3.23;;;3.10;99.90;;;;;;10354037;28;20225;-74
2021/12/21 15:05:53;;;;;;;8.03;3.40;;;3.00;99.90;;;;;;10359561;28;20302;-74
2021/12/21 15:10:57;;;;;;;8.47;3.70;;;2.90;99.90;;;;;;10346937;28;20222;-74
2021/12/21 15:15:57;;;;;;;7.07;3.30;;;2.80;99.90;;;;;;10355951;28;20716;-74
2021/12/21 15:21:03;;;;;;;6.10;3.77;;;2.70;99.90;;;;;;10352399;28;20245;-75
2021/12/21 15:26:03;;;;;;;6.70;4.13;;;2.60;99.90;;;;;;10359327;28;20233;-74
2021/12/21 15:31:04;;;;;;;11.60;4.53;;;2.50;99.90;;;;;;10342909;28;20217;-74
2021/12/21 15:36:05;;;;;;;9.80;4.97;;;2.40;99.90;;;;;;10359277;28;20248;-74
2021/12/21 15:41:06;;;;;;;8.03;4.63;;;2.30;99.90;;;;;;10346337;28;20229;-74
2021/12/21 15:46:07;;;;;;;11.50;4.83;;;2.20;99.90;;;;;;10349713;28;20240;-74
2021/12/21 15:51:07;;;;;;;8.73;4.30;;;2.10;99.90;;;;;;10351038;28;20820;-75
2021/12/21 15:56:12;;;;;;;7.30;4.73;;;2.00;99.90;;;;;;10357995;28;20677;-74
2021/12/21 16:01:13;;;;;;;12.20;5.90;;;2.00;99.90;;;;;;10353591;28;20230;-74
2021/12/21 16:06:16;;;;;;;11.23;5.47;;;1.90;99.90;;;;;;10352581;28;20232;-75
2021/12/21 16:11:17;;;;;;;11.70;5.83;;;1.90;99.90;;;;;;10345485;28;20255;-75
2021/12/21 16:16:17;;;;;;;13.00;6.40;;;1.80;99.90;;;;;;10356695;28;20588;-75
2021/12/21 16:21:18;;;;;;;13.93;5.93;;;1.80;99.90;;;;;;10350369;28;20231;-75
2021/12/21 16:26:19;;;;;;;15.43;5.80;;;1.70;99.90;;;;;;10343238;28;20241;-74
2021/12/21 16:31:21;;;;;;;11.50;6.23;;;1.70;99.90;;;;;;10343132;28;20245;-74
2021/12/21 16:36:22;;;;;;;10.07;5.97;;;1.50;99.90;;;;;;10347431;28;20230;-73
2021/12/21 16:41:23;;;;;;;11.23;6.20;;;1.30;99.90;;;;;;10356925;28;20229;-74
2021/12/21 16:46:23;;;;;;;9.90;5.60;;;1.20;99.90;;;;;;10358626;28;20287;-75
2021/12/21 16:51:25;;;;;;;8.27;5.60;;;1.20;99.90;;;;;;10351154;28;20222;-74
2021/12/21 16:56:27;;;;;;;12.87;5.73;;;1.10;99.90;;;;;;10358204;28;20221;-75
2021/12/21 17:01:27;;;;;;;10.30;6.47;;;0.90;99.90;;;;;;10366301;28;20225;-74
2021/12/21 17:06:28;;;;;;;10.67;6.27;;;0.90;99.90;;;;;;10357353;28;20226;-74
2021/12/21 17:11:29;;;;;;;11.43;6.20;;;0.90;99.90;;;;;;10357952;28;20241;-74
2021/12/21 17:16:29;;;;;;;9.90;5.70;;;0.90;99.90;;;;;;10368978;28;20224;-74
2021/12/21 17:21:30;;;;;;;12.17;6.33;;;0.80;99.90;;;;;;10350746;28;20316;-74
2021/12/21 17:26:31;;;;;;;12.07;5.77;;;0.80;99.90;;;;;;10356766;28;20229;-74
2021/12/21 17:31:32;;;;;;;11.20;5.67;;;0.80;99.90;;;;;;10361153;28;20220;-75
2021/12/21 17:36:34;;;;;;;12.67;6.07;;;0.80;99.90;;;;;;10367366;28;20268;-75
2021/12/21 17:41:35;;;;;;;11.07;6.03;;;0.80;99.90;;;;;;10349013;28;20221;-74
2021/12/21 17:46:36;;;;;;;11.90;6.40;;;0.80;99.90;;;;;;10350193;28;20733;-74
2021/12/21 17:51:37;;;;;;;11.83;6.30;;;0.80;99.90;;;;;;10348980;28;20255;-75
2021/12/21 17:56:37;;;;;;;11.90;6.63;;;0.70;99.90;;;;;;10353877;28;20222;-75
2021/12/21 18:01:38;;;;;;;12.70;6.60;;;0.60;99.90;;;;;;10359303;28;20221;-73
2021/12/21 18:06:39;;;;;;;11.83;6.57;;;0.70;99.90;;;;;;10352819;28;20232;-74
2021/12/21 18:11:42;;;;;;;17.00;8.23;;;0.70;99.90;;;;;;10353856;28;20712;-75
2021/12/21 18:16:43;;;;;;;17.77;7.10;;;0.60;99.90;;;;;;10362020;28;20593;-75
2021/12/21 18:21:44;;;;;;;15.40;6.80;;;0.50;99.90;;;;;;10359638;28;20230;-75
2021/12/21 18:26:45;;;;;;;12.77;6.47;;;0.40;99.90;;;;;;10360709;28;20226;-75
2021/12/21 18:31:46;;;;;;;10.83;6.10;;;0.40;99.90;;;;;;10350161;28;20299;-73
2021/12/21 18:36:46;;;;;;;12.37;6.37;;;0.40;99.90;;;;;;10354483;28;20252;-75
2021/12/21 18:41:50;;;;;;;12.90;5.70;;;0.40;99.90;;;;;;10352433;28;20748;-75
2021/12/21 18:46:51;;;;;;;12.27;5.93;;;0.40;99.90;;;;;;10349105;28;20236;-75
2021/12/21 18:51:52;;;;;;;11.37;6.57;;;0.50;99.90;;;;;;10355138;28;20241;-74
2021/12/21 18:56:53;;;;;;;10.83;6.10;;;0.40;99.90;;;;;;10362215;28;20243;-75
2021/12/21 19:01:55;;;;;;;11.73;7.27;;;0.40;99.90;;;;;;10358064;28;20221;-74
2021/12/21 19:06:56;;;;;;;13.50;7.50;;;0.30;99.90;;;;;;10358121;28;20267;-74
2021/12/21 19:12:00;;;;;;;10.47;6.70;;;0.30;99.90;;;;;;10348612;28;20244;-75
2021/12/21 19:17:03;;;;;;;12.87;6.57;;;0.30;99.90;;;;;;10350668;28;20245;-75
2021/12/21 19:22:04;;;;;;;11.83;6.60;;;0.30;99.90;;;;;;10351377;28;20217;-75
2021/12/21 19:27:06;;;;;;;11.57;5.93;;;0.20;99.90;;;;;;10346811;28;20230;-74
2021/12/21 19:32:07;;;;;;;10.00;5.90;;;0.10;99.90;;;;;;10350252;28;20208;-74
2021/12/21 19:37:08;;;;;;;17.13;9.83;;;-0.10;99.90;;;;;;10350551;28;20279;-73
2021/12/21 19:42:08;;;;;;;19.27;11.23;;;-0.20;99.90;;;;;;10344324;28;20304;-75
2021/12/21 19:47:09;;;;;;;12.17;7.40;;;-0.20;99.90;;;;;;10345083;28;20291;-75
2021/12/21 19:52:09;;;;;;;13.13;7.40;;;-0.30;99.90;;;;;;10343683;28;20220;-76
2021/12/21 19:57:10;;;;;;;11.83;7.50;;;-0.30;99.90;;;;;;10359146;28;20271;-76
2021/12/21 20:02:13;;;;;;;12.20;6.43;;;-0.40;99.90;;;;;;10351879;28;20224;-75
2021/12/21 20:07:14;;;;;;;10.37;6.40;;;-0.30;99.90;;;;;;10355108;28;20220;-75
2021/12/21 20:12:22;;;;;;;11.33;7.07;;;-0.30;99.90;;;;;;10363189;28;20292;-74
2021/12/21 20:17:24;;;;;;;15.00;8.13;;;-0.40;99.90;;;;;;10360872;28;20228;-74
2021/12/21 20:22:25;;;;;;;13.87;7.33;;;-0.50;99.90;;;;;;10360306;28;20225;-75
2021/12/21 20:27:26;;;;;;;14.17;7.70;;;-0.40;99.90;;;;;;10363548;28;20766;-75
2021/12/21 20:32:26;;;;;;;15.63;9.00;;;-0.40;99.90;;;;;;10364062;28;20222;-77
2021/12/21 20:37:30;;;;;;;18.83;10.87;;;-0.50;99.90;;;;;;10352939;28;20225;-75
2021/12/21 20:42:30;;;;;;;22.03;12.27;;;-0.70;99.90;;;;;;10366092;28;20228;-75
2021/12/21 20:47:32;;;;;;;18.10;11.70;;;-0.70;99.90;;;;;;10369877;28;20225;-75
2021/12/21 20:52:34;;;;;;;17.27;9.97;;;-0.80;99.90;;;;;;10354971;28;20221;-74
2021/12/21 20:57:35;;;;;;;20.17;8.30;;;-0.80;99.90;;;;;;10350733;28;20246;-74
2021/12/21 21:02:36;;;;;;;15.37;8.30;;;-0.80;99.90;;;;;;10355964;28;20267;-74
2021/12/21 21:07:37;;;;;;;13.80;8.30;;;-0.80;99.90;;;;;;10354080;28;20362;-75
2021/12/21 21:12:40;;;;;;;14.33;7.70;;;-0.90;99.90;;;;;;10367800;28;20233;-75
2021/12/21 21:17:41;;;;;;;15.73;8.80;;;-1.00;99.90;;;;;;10355304;28;20562;-75
2021/12/21 21:22:42;;;;;;;15.20;8.63;;;-1.00;99.90;;;;;;10358169;28;20233;-74
2021/12/21 21:27:45;;;;;;;16.23;7.83;;;-1.00;99.90;;;;;;10373625;28;20253;-75
2021/12/21 21:32:46;;;;;;;14.67;8.63;;;-0.90;99.90;;;;;;10369572;28;20217;-74
2021/12/21 21:37:46;;;;;;;13.63;7.77;;;-1.00;99.90;;;;;;10354567;28;20221;-74
2021/12/21 21:42:47;;;;;;;16.53;8.53;;;-1.00;99.90;;;;;;10357644;28;20230;-75
2021/12/21 21:47:51;;;;;;;16.53;8.90;;;-1.10;99.90;;;;;;10356720;28;20332;-74
2021/12/21 21:53:00;;;;;;;14.83;8.87;;;-1.10;99.90;;;;;;10351881;28;20210;-74
2021/12/21 21:58:11;;;;;;;16.97;8.83;;;-1.20;99.90;;;;;;10364373;28;20233;-74
2021/12/21 22:03:12;;;;;;;16.97;8.40;;;-1.20;99.90;;;;;;10348972;28;20224;-75
2021/12/21 22:08:13;;;;;;;16.77;8.93;;;-1.20;99.90;;;;;;10357073;28;20321;-75
2021/12/21 22:13:17;;;;;;;17.67;10.00;;;-1.20;99.90;;;;;;10362448;28;20308;-75
2021/12/21 22:18:18;;;;;;;12.20;8.30;;;-1.30;99.90;;;;;;10356598;28;20710;-75
2021/12/21 22:23:18;;;;;;;13.23;7.87;;;-1.30;99.90;;;;;;10354412;28;20248;-76
2021/12/21 22:28:25;;;;;;;12.43;7.30;;;-1.30;99.90;;;;;;10354257;28;20743;-75
2021/12/21 22:33:26;;;;;;;14.40;7.90;;;-1.30;99.90;;;;;;10321992;28;20721;-75
2021/12/21 22:38:30;;;;;;;18.47;9.13;;;-1.30;99.90;;;;;;10361539;28;20221;-75
2021/12/21 22:44:08;;;;;;;14.17;8.73;;;-1.30;99.90;;;;;;10357653;28;20248;-75
2021/12/21 22:49:09;;;;;;;12.53;7.40;;;-1.30;99.90;;;;;;10355461;28;20217;-74
2021/12/21 22:54:09;;;;;;;13.60;8.20;;;-1.40;99.90;;;;;;10353772;28;20582;-74
2021/12/21 22:59:10;;;;;;;12.53;7.47;;;-1.30;99.90;;;;;;10348184;28;20800;-75
2021/12/21 23:04:14;;;;;;;11.13;7.10;;;-1.40;99.90;;;;;;10352850;28;20221;-75
2021/12/21 23:09:14;;;;;;;11.97;7.90;;;-1.40;99.90;;;;;;10360771;28;20220;-75
2021/12/21 23:14:15;;;;;;;13.40;8.10;;;-1.40;99.90;;;;;;10346477;28;20221;-75
2021/12/21 23:19:23;;;;;;;10.63;7.33;;;-1.50;99.90;;;;;;10336304;28;20313;-75
2021/12/21 23:24:24;;;;;;;14.57;7.90;;;-1.60;99.90;;;;;;10345615;28;20219;-73
2021/12/21 23:29:25;;;;;;;14.57;8.07;;;-1.60;99.90;;;;;;10366825;28;20313;-75
2021/12/21 23:34:26;;;;;;;15.23;7.80;;;-1.50;99.90;;;;;;10347681;28;20220;-74
2021/12/21 23:39:26;;;;;;;14.33;8.10;;;-1.40;99.90;;;;;;10360840;28;20236;-77
2021/12/21 23:44:29;;;;;;;17.30;8.67;;;-1.40;99.90;;;;;;10354955;28;20225;-74
2021/12/21 23:49:29;;;;;;;13.23;7.30;;;-1.40;99.90;;;;;;10342618;28;20275;-74
2021/12/21 23:54:30;;;;;;;11.20;7.20;;;-1.40;99.90;;;;;;10358327;28;20610;-75
2021/12/21 23:59:30;;;;;;;13.67;7.90;;;-1.40;99.90;;;;;;10360084;28;20243;-75
